KHND

Henderson Executive Airport

Las Vegas, Nevada, USA
METAR KHND 141256Z 24008KT 10SM CLR 28/09 A2988 RMK AO2 SLP084 T02780094 $
Observed Flight Rules
Aug-14 @ 12:56 UTC (47 minutes ago) Visual Flight Rules
Wind Visibility Clouds
240° at 8 knots 10 miles
  • Clear skies
Temperatures Readings
Current 28°C / 82°F
Dewpoint 9°C / 48°F
Humidity 30%
Altimeter 29.88" Hg
Pressure 1008.4 hPa
Elevation 749
METAR KHND 141256Z 24008KT 10SM CLR 28/09 A2988 RMK AO2 SLP084 T02780094 $
Observed Flight Rules
Aug-14 @ 12:56 UTC
(47 minutes ago)
VFR
Wind Visibility
240° at 8 knots 10 miles
Clouds
  • Clear skies
Temperature Dewpoint
28°C / 82°F 9°C / 48°F
Humidity Altimeter Pressure
30% 29.88" Hg 1008.4 hPa